Time;durP1;ratioP1;P1;durP2;ratioP2;P2;SDS_P1;SDS_P2;PMS_P1;PMS_P2;Temp;Humidity;BMP_temperature;BMP_pressure;BME280_temperature;BME280_humidity;BME280_pressure;Samples;Min_cycle;Max_cycle;Signal;HPM_P1;HPM_P2
2021/04/06 00:00:41;;;;;;;6.63;1.98;;;1.00;99.90;;;;;;5046204;28;20220;-86
2021/04/06 00:03:11;;;;;;;3.72;1.75;;;1.00;99.90;;;;;;5052351;28;20196;-85
2021/04/06 00:05:40;;;;;;;10.27;1.92;;;1.20;99.90;;;;;;5050820;28;20203;-86
2021/04/06 00:08:09;;;;;;;5.50;2.00;;;0.90;99.90;;;;;;5051004;28;20211;-85
2021/04/06 00:10:39;;;;;;;6.53;2.13;;;1.00;99.90;;;;;;5048671;28;20350;-85
2021/04/06 00:13:06;;;;;;;5.05;1.75;;;1.00;99.90;;;;;;5048177;28;20195;-85
2021/04/06 00:15:36;;;;;;;5.05;1.70;;;1.00;99.90;;;;;;5047954;28;20226;-86
2021/04/06 00:18:06;;;;;;;5.72;1.38;;;1.00;99.90;;;;;;5049066;28;20207;-86
2021/04/06 00:20:36;;;;;;;4.30;1.83;;;1.00;99.90;;;;;;5056439;28;20232;-87
2021/04/06 00:23:05;;;;;;;5.30;2.00;;;0.90;99.90;;;;;;5049134;28;20200;-87
2021/04/06 00:25:34;;;;;;;1.95;1.60;;;0.90;99.90;;;;;;5043605;28;20238;-87
2021/04/06 00:28:05;;;;;;;2.63;1.88;;;0.80;99.90;;;;;;5048162;28;20203;-85
2021/04/06 00:30:32;;;;;;;7.90;2.30;;;0.70;99.90;;;;;;5053949;28;20212;-86
2021/04/06 00:33:03;;;;;;;3.42;1.58;;;0.90;99.90;;;;;;5051085;28;20245;-86
2021/04/06 00:35:31;;;;;;;13.52;1.88;;;1.00;99.90;;;;;;5052708;28;20539;-85
2021/04/06 00:37:59;;;;;;;2.83;1.90;;;1.30;99.90;;;;;;5054725;28;20259;-85
2021/04/06 00:40:28;;;;;;;3.45;1.60;;;0.80;99.90;;;;;;5057232;28;20227;-85
2021/04/06 00:43:02;;;;;;;4.80;2.28;;;1.10;99.90;;;;;;5055188;28;20204;-87
2021/04/06 00:45:31;;;;;;;5.15;2.42;;;0.80;99.90;;;;;;5056655;28;20192;-86
2021/04/06 00:48:01;;;;;;;5.10;1.73;;;1.20;99.90;;;;;;5047504;28;20204;-84
2021/04/06 00:50:32;;;;;;;5.93;1.60;;;0.80;99.90;;;;;;5045962;28;20235;-86
2021/04/06 00:52:58;;;;;;;12.10;2.00;;;0.80;99.90;;;;;;5042749;28;20198;-85
2021/04/06 00:55:35;;;;;;;2.53;1.55;;;0.70;99.90;;;;;;5042310;28;20282;-86
2021/04/06 00:58:14;;;;;;;6.40;2.08;;;0.70;99.90;;;;;;5041321;28;20214;-86
2021/04/06 01:00:44;;;;;;;2.53;2.22;;;0.70;99.90;;;;;;5042214;28;20603;-84
2021/04/06 01:03:13;;;;;;;4.10;1.70;;;0.40;99.90;;;;;;5042151;28;20261;-87
2021/04/06 01:06:07;;;;;;;7.65;1.90;;;0.50;99.90;;;;;;5041232;28;20199;-86
2021/04/06 01:08:35;;;;;;;9.27;2.63;;;0.70;99.90;;;;;;5041921;28;20251;-85
2021/04/06 01:11:03;;;;;;;5.28;1.85;;;0.60;99.90;;;;;;5040913;28;20210;-85
2021/04/06 01:13:33;;;;;;;10.45;2.10;;;-0.20;99.90;;;;;;5041183;28;20319;-86
2021/04/06 01:16:00;;;;;;;8.07;2.20;;;0.50;99.90;;;;;;5042008;28;20204;-86
2021/04/06 01:18:26;;;;;;;6.63;2.85;;;0.80;99.90;;;;;;5049974;28;20203;-85
2021/04/06 01:20:55;;;;;;;2.38;1.40;;;0.60;99.90;;;;;;5058580;28;20191;-89
2021/04/06 01:23:23;;;;;;;4.05;2.50;;;0.70;99.90;;;;;;5058852;28;20191;-87
2021/04/06 01:25:54;;;;;;;6.05;2.13;;;0.50;99.90;;;;;;5058644;28;20187;-85
2021/04/06 01:28:21;;;;;;;6.82;2.00;;;0.70;99.90;;;;;;5058862;28;20174;-88
2021/04/06 01:30:50;;;;;;;4.85;2.55;;;0.40;99.90;;;;;;5058640;28;20242;-87
2021/04/06 01:33:20;;;;;;;2.22;2.03;;;0.50;99.90;;;;;;5058501;28;20202;-85
2021/04/06 01:35:47;;;;;;;3.05;2.17;;;0.60;99.90;;;;;;5039313;28;20280;-83
2021/04/06 01:38:16;;;;;;;2.28;1.50;;;0.50;99.90;;;;;;5037109;28;20203;-84
2021/04/06 01:40:43;;;;;;;5.25;1.95;;;0.60;99.90;;;;;;5046220;28;20224;-85
2021/04/06 01:43:11;;;;;;;7.97;2.42;;;0.50;99.90;;;;;;5055339;28;20192;-83
2021/04/06 01:45:43;;;;;;;7.43;2.42;;;0.50;99.90;;;;;;5055050;28;20274;-84
2021/04/06 01:48:10;;;;;;;5.13;1.92;;;0.50;99.90;;;;;;5048501;28;20192;-85
2021/04/06 01:50:37;;;;;;;5.53;2.10;;;0.50;99.90;;;;;;5050553;28;20228;-82
2021/04/06 01:53:03;;;;;;;6.45;2.65;;;0.50;99.90;;;;;;5054313;28;20238;-83
2021/04/06 01:55:31;;;;;;;7.47;2.67;;;0.50;99.90;;;;;;5049288;28;20211;-84
2021/04/06 01:57:59;;;;;;;5.28;2.28;;;0.40;99.90;;;;;;5054617;28;20235;-85
2021/04/06 02:00:31;;;;;;;12.45;2.45;;;0.70;99.90;;;;;;5054570;28;20234;-86
2021/04/06 02:03:02;;;;;;;2.65;1.92;;;0.50;99.90;;;;;;5057263;28;20196;-84
2021/04/06 02:05:29;;;;;;;6.63;2.05;;;0.50;99.90;;;;;;5056284;28;20282;-86
2021/04/06 02:07:58;;;;;;;5.80;2.65;;;0.50;99.90;;;;;;5046073;28;20299;-85
2021/04/06 02:10:25;;;;;;;4.25;2.55;;;0.50;99.90;;;;;;5053376;28;20249;-85
2021/04/06 02:12:51;;;;;;;10.73;2.70;;;0.60;99.90;;;;;;5060927;28;20195;-85
2021/04/06 02:15:18;;;;;;;7.50;2.60;;;0.60;99.90;;;;;;5061043;28;20222;-85
2021/04/06 02:17:49;;;;;;;3.53;2.38;;;0.50;99.90;;;;;;5055667;28;20203;-85
2021/04/06 02:20:19;;;;;;;4.90;2.20;;;0.50;99.90;;;;;;5055623;28;20338;-84
2021/04/06 02:22:54;;;;;;;6.28;2.13;;;0.40;99.90;;;;;;5043819;28;20578;-85
2021/04/06 02:25:23;;;;;;;9.32;2.58;;;0.40;99.90;;;;;;5042420;28;20191;-84
2021/04/06 02:27:49;;;;;;;7.78;4.40;;;;;;;;;;5047837;28;20196;-83
2021/04/06 02:30:16;;;;;;;2.55;2.30;;;0.60;99.90;;;;;;5056745;28;20224;-83
2021/04/06 02:32:43;;;;;;;8.10;2.45;;;0.40;99.90;;;;;;5043418;28;20204;-84
2021/04/06 02:35:12;;;;;;;5.72;2.47;;;0.60;99.90;;;;;;5042446;28;20220;-85
2021/04/06 02:37:41;;;;;;;4.68;2.17;;;0.50;99.90;;;;;;5042053;28;20208;-84
2021/04/06 02:40:10;;;;;;;5.38;1.77;;;0.50;99.90;;;;;;5042369;28;20604;-86
2021/04/06 02:42:38;;;;;;;3.20;2.17;;;0.40;99.90;;;;;;5042374;28;20204;-85
2021/04/06 02:45:09;;;;;;;12.88;2.45;;;0.40;99.90;;;;;;5041691;28;20614;-86
2021/04/06 02:47:38;;;;;;;7.05;3.42;;;0.30;99.90;;;;;;5041544;28;20210;-86
2021/04/06 02:50:08;;;;;;;3.03;2.40;;;0.40;99.90;;;;;;5042373;28;20637;-86
2021/04/06 02:52:36;;;;;;;6.40;2.83;;;0.40;99.90;;;;;;5043043;28;20204;-86
2021/04/06 02:55:03;;;;;;;2.95;2.20;;;0.30;99.90;;;;;;5046343;28;20212;-84
2021/04/06 02:57:30;;;;;;;3.35;2.30;;;0.40;99.90;;;;;;5051958;28;20207;-84
2021/04/06 02:59:56;;;;;;;3.20;2.28;;;0.30;99.90;;;;;;5059805;28;20224;-86
2021/04/06 03:02:23;;;;;;;5.55;2.20;;;0.30;99.90;;;;;;5060199;28;20192;-85
2021/04/06 03:04:49;;;;;;;6.88;2.50;;;0.40;99.90;;;;;;5059135;28;20187;-85
2021/04/06 03:07:18;;;;;;;3.42;2.67;;;0.50;99.90;;;;;;5060464;28;20188;-86
2021/04/06 03:09:55;;;;;;;4.10;2.67;;;0.20;99.90;;;;;;5060765;28;20211;-85
2021/04/06 03:12:26;;;;;;;6.82;3.10;;;0.20;99.90;;;;;;5060516;28;20207;-86
2021/04/06 03:14:52;;;;;;;2.45;2.25;;;0.20;99.90;;;;;;5059955;28;20279;-85
2021/04/06 03:17:18;;;;;;;2.30;2.10;;;0.10;99.90;;;;;;5060015;28;20196;-86
2021/04/06 03:19:45;;;;;;;3.65;2.85;;;0.20;99.90;;;;;;5059242;28;20235;-85
2021/04/06 03:22:12;;;;;;;7.10;2.83;;;0.10;99.90;;;;;;5057482;28;20440;-85
2021/04/06 03:24:40;;;;;;;4.43;3.53;;;0.20;99.90;;;;;;5056905;28;20199;-85
2021/04/06 03:27:07;;;;;;;4.60;2.88;;;0.20;99.90;;;;;;5049175;28;20211;-85
2021/04/06 03:29:34;;;;;;;8.43;2.40;;;0.20;99.90;;;;;;5043619;28;20310;-85
2021/04/06 03:32:01;;;;;;;7.15;2.85;;;0.30;99.90;;;;;;5043261;28;20207;-86
2021/04/06 03:34:32;;;;;;;4.97;3.55;;;0.20;99.90;;;;;;5042078;28;20227;-85
2021/04/06 03:36:59;;;;;;;8.02;2.85;;;0.30;99.90;;;;;;5040753;28;20448;-87
2021/04/06 03:39:27;;;;;;;6.80;3.47;;;0.20;99.90;;;;;;5042103;28;20468;-85
2021/04/06 03:41:54;;;;;;;2.90;2.47;;;0.30;99.90;;;;;;5057125;28;20275;-85
2021/04/06 03:44:26;;;;;;;5.70;3.05;;;-0.10;99.90;;;;;;5059576;28;20263;-85
2021/04/06 03:46:56;;;;;;;5.97;3.38;;;0.20;99.90;;;;;;5058325;28;20219;-85
2021/04/06 03:49:26;;;;;;;3.65;3.28;;;0.30;99.90;;;;;;5058470;28;20243;-85
2021/04/06 03:51:54;;;;;;;8.88;3.00;;;0.40;99.90;;;;;;5059015;28;20194;-84
2021/04/06 03:54:39;;;;;;;3.63;3.10;;;0.20;99.90;;;;;;5058574;28;20223;-82
2021/04/06 03:57:33;;;;;;;6.70;2.60;;;0.10;99.90;;;;;;5056795;28;20513;-84
2021/04/06 03:59:59;;;;;;;10.80;3.20;;;0.20;99.90;;;;;;5056473;28;20223;-86
2021/04/06 04:02:26;;;;;;;6.78;3.70;;;0.20;99.90;;;;;;5056272;28;20210;-85
2021/04/06 04:04:52;;;;;;;5.63;3.00;;;0.20;99.90;;;;;;5057395;28;20211;-85
2021/04/06 04:07:19;;;;;;;4.10;3.70;;;0.10;99.90;;;;;;5056516;28;20212;-85
2021/04/06 04:09:45;;;;;;;3.70;2.83;;;0.10;99.90;;;;;;5057312;28;20239;-84
2021/04/06 04:12:11;;;;;;;5.55;3.35;;;0.00;99.90;;;;;;5059405;28;20199;-87
2021/04/06 04:14:38;;;;;;;5.55;2.90;;;0.10;99.90;;;;;;5059464;28;20223;-84
2021/04/06 04:17:06;;;;;;;8.07;3.60;;;0.00;99.90;;;;;;5058797;28;20214;-85
2021/04/06 04:19:32;;;;;;;4.60;3.30;;;0.00;99.90;;;;;;5078294;23;20231;-80
2021/04/06 04:21:58;;;;;;;7.78;2.90;;;0.00;99.90;;;;;;5063385;28;20199;-83
2021/04/06 04:24:24;;;;;;;6.68;3.72;;;0.00;99.90;;;;;;5063000;28;20431;-82
2021/04/06 04:26:50;;;;;;;4.57;3.45;;;0.00;99.90;;;;;;5063624;28;20210;-83
2021/04/06 04:29:17;;;;;;;7.20;3.80;;;0.00;99.90;;;;;;5063598;28;20595;-82
2021/04/06 04:31:45;;;;;;;4.47;2.92;;;0.00;99.90;;;;;;5063148;28;20214;-82
2021/04/06 04:34:11;;;;;;;5.47;3.40;;;0.00;99.90;;;;;;5062947;28;20315;-82
2021/04/06 04:36:37;;;;;;;2.88;2.58;;;-0.10;99.90;;;;;;5063468;28;20202;-82
2021/04/06 04:39:04;;;;;;;6.60;3.38;;;-0.10;99.90;;;;;;5063087;28;20222;-82
2021/04/06 04:41:30;;;;;;;9.20;3.15;;;0.00;99.90;;;;;;5063063;28;20207;-82
2021/04/06 04:43:57;;;;;;;6.78;3.15;;;0.00;99.90;;;;;;5063151;28;20593;-83
2021/04/06 04:46:23;;;;;;;5.85;3.50;;;0.00;99.90;;;;;;5063855;28;20199;-83
2021/04/06 04:48:50;;;;;;;3.15;2.90;;;-0.20;99.90;;;;;;5063047;28;20207;-80
2021/04/06 04:51:16;;;;;;;5.22;2.78;;;0.00;99.90;;;;;;5062737;28;20207;-83
2021/04/06 04:53:42;;;;;;;9.50;2.80;;;0.00;99.90;;;;;;5063079;28;20219;-83
2021/04/06 04:56:08;;;;;;;6.63;3.75;;;0.00;99.90;;;;;;5063762;28;20207;-82
2021/04/06 04:58:34;;;;;;;5.13;3.15;;;0.30;99.90;;;;;;5063052;28;20238;-83
2021/04/06 05:01:00;;;;;;;3.92;3.17;;;0.00;99.90;;;;;;5063781;28;20269;-82
2021/04/06 05:03:26;;;;;;;5.25;3.50;;;-0.10;99.90;;;;;;5066220;28;20202;-82
2021/04/06 05:05:53;;;;;;;4.65;3.78;;;-0.10;99.90;;;;;;5065601;28;20207;-82
2021/04/06 05:08:19;;;;;;;4.82;3.08;;;0.00;99.90;;;;;;5064725;28;20210;-82
2021/04/06 05:10:45;;;;;;;8.77;3.80;;;0.30;99.90;;;;;;5064000;28;20222;-83
2021/04/06 05:13:11;;;;;;;9.15;5.65;;;0.80;99.90;;;;;;5063090;28;20207;-82
2021/04/06 05:15:37;;;;;;;6.88;3.80;;;0.00;99.90;;;;;;5062240;28;20223;-82
2021/04/06 05:18:03;;;;;;;4.90;3.83;;;0.10;99.90;;;;;;5063007;28;20214;-82
2021/04/06 05:20:30;;;;;;;5.40;3.90;;;0.20;99.90;;;;;;5064136;28;20261;-82
2021/04/06 05:22:56;;;;;;;9.15;3.65;;;0.10;99.90;;;;;;5064265;28;20214;-82
2021/04/06 05:25:22;;;;;;;5.68;3.83;;;0.20;99.90;;;;;;5063627;28;20207;-82
2021/04/06 05:27:48;;;;;;;8.90;3.05;;;0.30;99.90;;;;;;5059222;28;20207;-82
2021/04/06 05:30:16;;;;;;;6.85;2.85;;;0.40;99.90;;;;;;5056701;28;20227;-81
2021/04/06 05:32:42;;;;;;;4.63;3.78;;;0.40;99.90;;;;;;5057792;28;20214;-81
2021/04/06 05:35:09;;;;;;;9.02;4.35;;;0.60;99.90;;;;;;5062708;28;20265;-82
2021/04/06 05:37:35;;;;;;;7.43;3.25;;;;;;;;;;5061831;28;20253;-82
2021/04/06 05:40:03;;;;;;;6.30;2.92;;;0.70;99.90;;;;;;5062335;28;20242;-82
2021/04/06 05:42:29;;;;;;;3.65;2.97;;;0.60;99.90;;;;;;5062107;28;20206;-82
2021/04/06 05:44:55;;;;;;;4.85;3.30;;;0.70;99.90;;;;;;5061990;28;20757;-82
2021/04/06 05:47:27;;;;;;;7.35;4.70;;;0.70;99.90;;;;;;5061610;28;20207;-82
2021/04/06 05:49:54;;;;;;;5.90;3.85;;;0.70;99.90;;;;;;5061356;28;20226;-82
2021/04/06 05:52:20;;;;;;;8.38;3.85;;;0.60;99.90;;;;;;5061917;28;20207;-82
2021/04/06 05:54:46;;;;;;;6.03;3.67;;;0.80;99.90;;;;;;5061527;28;20254;-82
2021/04/06 05:57:13;;;;;;;6.15;4.00;;;0.70;99.90;;;;;;5063867;28;20206;-83
2021/04/06 05:59:39;;;;;;;7.38;4.07;;;0.80;99.90;;;;;;5064398;28;20302;-82
2021/04/06 06:02:09;;;;;;;7.50;3.42;;;0.90;99.90;;;;;;5076663;28;20210;-81
2021/04/06 06:04:36;;;;;;;7.95;6.30;;;1.00;99.90;;;;;;5063611;28;20369;-82
2021/04/06 06:07:02;;;;;;;9.27;4.22;;;0.90;99.90;;;;;;5063199;28;20184;-82
2021/04/06 06:09:29;;;;;;;8.48;4.22;;;1.10;99.90;;;;;;5061831;28;20285;-82
2021/04/06 06:11:57;;;;;;;8.38;3.88;;;1.20;99.90;;;;;;5061665;28;20577;-82
2021/04/06 06:14:28;;;;;;;5.13;4.07;;;1.30;99.90;;;;;;5061692;28;20297;-82
2021/04/06 06:16:54;;;;;;;4.30;3.28;;;1.20;99.90;;;;;;5061143;28;20203;-82
2021/04/06 06:19:20;;;;;;;9.48;5.95;;;1.20;99.90;;;;;;5061440;28;20235;-81
2021/04/06 06:21:48;;;;;;;4.90;3.35;;;1.10;99.90;;;;;;5064199;28;20207;-82
2021/04/06 06:24:26;;;;;;;8.55;3.88;;;1.20;99.90;;;;;;5062627;28;20286;-81
2021/04/06 06:26:52;;;;;;;6.40;4.13;;;1.30;99.90;;;;;;5064209;28;20201;-81
2021/04/06 06:29:22;;;;;;;8.38;4.05;;;1.40;99.90;;;;;;5068631;28;20230;-81
2021/04/06 06:31:50;;;;;;;9.98;3.67;;;1.30;99.90;;;;;;5074210;28;20203;-80
2021/04/06 06:34:34;;;;;;;6.18;3.97;;;1.40;99.90;;;;;;5074773;28;20246;-82
2021/04/06 06:37:02;;;;;;;5.03;3.80;;;1.50;99.90;;;;;;5075019;28;20202;-80
2021/04/06 06:39:28;;;;;;;9.55;3.97;;;1.70;99.90;;;;;;5074743;28;20242;-80
2021/04/06 06:42:00;;;;;;;6.90;2.95;;;1.70;99.90;;;;;;5075748;28;20211;-80
2021/04/06 06:44:28;;;;;;;11.43;4.40;;;1.80;99.90;;;;;;5074798;28;20195;-80
2021/04/06 06:47:13;;;;;;;4.93;4.00;;;2.00;99.90;;;;;;5073432;28;20233;-80
2021/04/06 06:49:41;;;;;;;6.97;3.33;;;2.00;99.90;;;;;;5073826;28;20218;-80
2021/04/06 06:52:28;;;;;;;9.27;4.30;;;1.90;99.90;;;;;;5073563;28;20203;-80
2021/04/06 06:54:57;;;;;;;6.22;3.42;;;2.10;99.90;;;;;;5074216;28;20235;-80
2021/04/06 06:57:30;;;;;;;4.03;2.65;;;2.00;99.90;;;;;;5072073;28;20241;-81
2021/04/06 07:00:11;;;;;;;7.90;3.15;;;2.10;99.90;;;;;;5066100;28;20307;-81
2021/04/06 07:02:39;;;;;;;6.15;3.28;;;2.30;99.90;;;;;;5063752;28;20191;-82
2021/04/06 07:05:18;;;;;;;7.75;3.40;;;2.40;99.90;;;;;;5062773;28;20212;-81
2021/04/06 07:08:01;;;;;;;4.05;2.95;;;2.50;99.90;;;;;;5062930;28;20191;-82
2021/04/06 07:10:30;;;;;;;7.10;3.38;;;2.60;99.90;;;;;;5069602;28;20223;-81
2021/04/06 07:13:07;;;;;;;3.30;2.90;;;2.80;99.90;;;;;;5068185;28;20218;-82
2021/04/06 07:15:37;;;;;;;11.52;4.03;;;2.70;99.90;;;;;;5065289;28;20219;-81
2021/04/06 07:18:07;;;;;;;5.25;3.47;;;2.60;99.90;;;;;;5067486;28;20206;-82
2021/04/06 07:20:40;;;;;;;3.95;2.92;;;2.80;99.90;;;;;;5068131;28;20284;-83
2021/04/06 07:23:11;;;;;;;3.50;3.20;;;2.90;99.90;;;;;;5068296;28;20231;-81
2021/04/06 07:25:37;;;;;;;4.35;3.00;;;3.00;99.90;;;;;;5066246;28;20187;-81
2021/04/06 07:28:04;;;;;;;4.57;3.03;;;2.90;99.90;;;;;;5067065;28;20225;-82
2021/04/06 07:30:30;;;;;;;9.65;3.53;;;3.00;99.90;;;;;;5066223;28;20241;-82
2021/04/06 07:32:58;;;;;;;4.60;3.40;;;3.10;99.90;;;;;;5065778;28;20214;-81
2021/04/06 07:35:25;;;;;;;16.83;4.18;;;3.20;99.90;;;;;;5065034;28;20326;-82
2021/04/06 07:37:51;;;;;;;7.47;3.10;;;3.30;99.90;;;;;;5065569;28;20230;-82
2021/04/06 07:40:20;;;;;;;4.68;2.92;;;3.30;99.90;;;;;;5065792;28;20219;-81
2021/04/06 07:42:48;;;;;;;8.50;3.75;;;3.40;99.90;;;;;;5065770;28;20207;-81
2021/04/06 07:45:37;;;;;;;6.40;3.75;;;3.40;99.90;;;;;;5064954;28;20195;-81
2021/04/06 07:48:03;;;;;;;4.75;2.90;;;3.20;99.90;;;;;;5065844;28;20191;-82
2021/04/06 07:50:36;;;;;;;6.47;3.88;;;3.30;99.90;;;;;;5065773;28;20651;-81
2021/04/06 07:53:20;;;;;;;7.63;4.43;;;3.40;99.90;;;;;;5065689;28;20669;-79
2021/04/06 07:55:46;;;;;;;10.00;3.75;;;3.50;99.90;;;;;;5068994;28;20211;-79
2021/04/06 07:58:43;;;;;;;7.78;4.10;;;3.60;99.90;;;;;;5069165;28;20210;-83
2021/04/06 08:01:09;;;;;;;9.07;5.05;;;3.40;99.90;;;;;;5069987;28;20250;-79
2021/04/06 08:04:06;;;;;;;9.43;3.40;;;3.70;99.90;;;;;;5070117;28;20237;-80
2021/04/06 08:06:44;;;;;;;6.43;4.40;;;3.50;99.90;;;;;;4986014;28;20226;-83
2021/04/06 08:09:37;;;;;;;6.15;3.53;;;3.50;99.90;;;;;;5056159;28;20236;-82
2021/04/06 08:12:05;;;;;;;8.13;3.60;;;3.60;99.90;;;;;;5067928;28;20203;-82
2021/04/06 08:14:32;;;;;;;5.97;3.80;;;3.60;99.90;;;;;;5067387;28;20227;-82
2021/04/06 08:17:32;;;;;;;6.35;3.80;;;3.70;99.90;;;;;;5069166;28;20233;-80
2021/04/06 08:20:00;;;;;;;5.63;3.75;;;3.90;99.90;;;;;;5070871;28;20246;-82
2021/04/06 08:22:29;;;;;;;6.93;3.35;;;4.10;99.90;;;;;;5066372;28;20210;-82
2021/04/06 08:25:33;;;;;;;7.20;4.53;;;3.80;99.90;;;;;;5065407;28;20376;-82
2021/04/06 08:28:00;;;;;;;9.90;4.10;;;3.70;99.90;;;;;;5062218;28;20207;-82
2021/04/06 08:30:28;;;;;;;4.63;3.45;;;3.80;99.90;;;;;;5073888;28;20230;-81
2021/04/06 08:33:27;;;;;;;7.03;4.30;;;3.80;99.90;;;;;;5067797;28;20203;-83
2021/04/06 08:36:03;;;;;;;4.05;3.60;;;3.80;99.90;;;;;;5058336;28;20231;-81
2021/04/06 08:38:44;;;;;;;10.45;4.75;;;3.80;99.90;;;;;;5063612;28;20202;-81
2021/04/06 08:41:15;;;;;;;7.93;4.05;;;3.80;99.90;;;;;;5064324;28;20274;-81
2021/04/06 08:43:47;;;;;;;5.35;3.60;;;3.80;99.90;;;;;;5063623;28;20191;-81
2021/04/06 08:46:14;;;;;;;7.82;4.97;;;3.70;99.90;;;;;;5063629;28;20202;-80
2021/04/06 08:48:49;;;;;;;11.45;3.90;;;3.80;99.90;;;;;;5063770;28;20206;-82
2021/04/06 08:51:20;;;;;;;5.50;3.63;;;3.80;99.90;;;;;;5063901;28;20276;-82
2021/04/06 08:53:48;;;;;;;11.02;4.63;;;3.90;99.90;;;;;;5064357;28;20207;-81
2021/04/06 08:56:16;;;;;;;6.20;4.88;;;3.80;99.90;;;;;;5064924;28;20570;-82
2021/04/06 08:58:42;;;;;;;6.45;3.97;;;4.00;99.90;;;;;;5063927;28;20214;-81
2021/04/06 09:01:09;;;;;;;6.40;3.92;;;4.10;99.90;;;;;;5064885;28;20203;-80
2021/04/06 09:03:36;;;;;;;6.95;3.60;;;3.70;99.90;;;;;;5063536;28;20245;-80
2021/04/06 09:06:09;;;;;;;5.95;3.70;;;3.70;99.90;;;;;;5065232;28;20624;-81
2021/04/06 09:08:53;;;;;;;8.00;4.57;;;3.70;99.90;;;;;;5065311;28;20210;-80
2021/04/06 09:11:20;;;;;;;7.60;4.05;;;4.00;99.90;;;;;;5067358;28;20190;-82
2021/04/06 09:13:47;;;;;;;6.40;4.60;;;4.10;99.90;;;;;;5066060;28;20607;-82
2021/04/06 09:16:13;;;;;;;9.57;4.65;;;4.50;99.90;;;;;;5066873;28;20662;-81
2021/04/06 09:18:39;;;;;;;6.65;3.67;;;4.40;99.90;;;;;;5066558;28;20210;-82
2021/04/06 09:21:07;;;;;;;9.05;3.97;;;4.10;99.90;;;;;;5067013;28;20238;-81
2021/04/06 09:23:38;;;;;;;8.25;3.92;;;5.30;99.90;;;;;;5056846;28;20199;-81
2021/04/06 09:26:12;;;;;;;10.52;4.30;;;4.20;99.90;;;;;;5074797;28;20194;-81
2021/04/06 09:28:39;;;;;;;11.32;3.55;;;4.00;99.90;;;;;;5073909;28;20244;-81
2021/04/06 09:31:06;;;;;;;10.10;4.15;;;4.10;99.90;;;;;;5069612;28;20227;-82
2021/04/06 09:33:32;;;;;;;8.98;4.45;;;4.10;99.90;;;;;;5069310;28;20207;-82
2021/04/06 09:35:59;;;;;;;8.65;4.47;;;4.00;99.90;;;;;;5068266;28;20215;-82
2021/04/06 09:38:26;;;;;;;8.80;3.88;;;4.10;99.90;;;;;;5068481;28;20222;-82
2021/04/06 09:40:53;;;;;;;18.23;4.40;;;4.20;99.90;;;;;;5067704;28;20223;-82
2021/04/06 09:43:20;;;;;;;8.38;5.07;;;4.10;99.90;;;;;;5070609;28;20202;-80
2021/04/06 09:45:48;;;;;;;15.45;4.50;;;3.90;99.90;;;;;;5071321;28;20210;-81
2021/04/06 09:48:15;;;;;;;3.47;3.17;;;3.80;99.90;;;;;;5066683;28;20203;-80
2021/04/06 09:50:56;;;;;;;12.18;5.00;;;3.80;99.90;;;;;;5066191;28;20226;-81
2021/04/06 09:53:24;;;;;;;5.40;3.38;;;4.00;99.90;;;;;;5066271;28;20230;-81
2021/04/06 09:55:50;;;;;;;7.97;5.20;;;4.20;99.90;;;;;;5065524;28;20222;-81
2021/04/06 09:58:17;;;;;;;14.65;4.32;;;4.40;99.90;;;;;;5065721;28;20587;-82
2021/04/06 10:00:45;;;;;;;11.20;4.55;;;4.40;99.90;;;;;;5064577;28;20227;-81
2021/04/06 10:03:14;;;;;;;6.25;3.40;;;4.60;99.90;;;;;;5066132;28;20203;-81
2021/04/06 10:05:43;;;;;;;7.35;3.60;;;4.70;99.90;;;;;;5068392;28;20203;-82
2021/04/06 10:08:11;;;;;;;10.93;3.72;;;5.00;99.90;;;;;;5070582;28;20207;-80
2021/04/06 10:10:38;;;;;;;6.90;3.85;;;4.80;99.90;;;;;;5071345;28;20223;-82
2021/04/06 10:13:06;;;;;;;11.95;3.33;;;4.70;99.90;;;;;;5071184;28;20666;-82
2021/04/06 10:15:33;;;;;;;8.93;5.05;;;4.70;99.90;;;;;;5070484;28;20694;-83
2021/04/06 10:18:09;;;;;;;10.98;3.20;;;4.80;99.90;;;;;;5068586;28;20674;-80
2021/04/06 10:21:29;;;;;;;4.53;3.15;;;4.90;99.90;;;;;;5124725;22;20226;-85
2021/04/06 10:24:14;;;;;;;6.40;3.28;;;5.00;99.90;;;;;;5057630;28;20267;-85
2021/04/06 10:26:47;;;;;;;12.63;3.45;;;;;;;;;;5076321;28;20220;-86
2021/04/06 10:29:47;;;;;;;7.65;3.45;;;5.70;99.90;;;;;;5076100;28;20289;-85
2021/04/06 10:35:57;;;;;;;4.13;2.70;;;5.60;99.90;;;;;;5077618;28;20198;-85
2021/04/06 10:38:35;;;;;;;8.60;3.80;;;5.70;99.90;;;;;;5074461;28;20225;-85
2021/04/06 10:41:14;;;;;;;9.75;3.22;;;5.50;99.90;;;;;;5077019;28;20223;-86
2021/04/06 10:43:44;;;;;;;4.05;2.40;;;5.70;99.90;;;;;;5077104;28;20859;-85
2021/04/06 10:46:15;;;;;;;8.50;2.65;;;5.70;99.90;;;;;;5076696;28;20246;-86
2021/04/06 10:49:00;;;;;;;7.95;3.40;;;5.40;99.90;;;;;;5075823;28;20210;-85
2021/04/06 10:51:54;;;;;;;8.05;3.50;;;5.30;99.90;;;;;;5075997;28;20223;-85
2021/04/06 10:54:22;;;;;;;2.78;2.17;;;5.70;99.90;;;;;;5075377;28;20278;-87
2021/04/06 10:56:54;;;;;;;8.23;3.08;;;5.60;99.90;;;;;;5077517;28;20193;-85
2021/04/06 10:59:30;;;;;;;7.75;2.85;;;5.40;99.90;;;;;;5078796;28;20207;-85
2021/04/06 11:02:25;;;;;;;7.85;3.20;;;5.00;99.90;;;;;;5079693;28;20199;-85
2021/04/06 11:05:29;;;;;;;8.23;2.95;;;4.90;99.90;;;;;;5075320;28;20341;-84
2021/04/06 11:10:44;;;;;;;8.10;3.20;;;;;;;;;;5044258;28;20261;-84
2021/04/06 11:13:13;;;;;;;5.38;2.45;;;;;;;;;;5066680;28;20207;-83
2021/04/06 11:15:46;;;;;;;4.80;3.15;;;;;;;;;;5065383;28;20231;-85
2021/04/06 11:18:14;;;;;;;7.40;3.28;;;;;;;;;;5070171;28;20199;-85
2021/04/06 11:20:49;;;;;;;6.85;3.35;;;;;;;;;;5070483;28;20234;-85
2021/04/06 11:23:21;;;;;;;5.05;3.20;;;5.90;99.90;;;;;;5068138;28;20205;-86
2021/04/06 11:25:52;;;;;;;7.38;2.75;;;5.90;99.90;;;;;;5065756;28;20199;-85
2021/04/06 11:28:27;;;;;;;7.35;2.75;;;;;;;;;;5066491;28;20203;-85
2021/04/06 11:31:00;;;;;;;8.02;2.50;;;;;;;;;;5067285;28;20313;-84
2021/04/06 11:33:32;;;;;;;6.25;2.88;;;;;;;;;;5065864;28;20207;-85
2021/04/06 11:36:15;;;;;;;6.55;3.33;;;6.80;99.90;;;;;;5065872;28;20218;-85
2021/04/06 11:38:54;;;;;;;8.30;4.47;;;;;;;;;;5066647;28;20603;-85
2021/04/06 11:41:51;;;;;;;4.80;2.60;;;7.10;99.90;;;;;;5066856;28;20436;-85
2021/04/06 11:44:25;;;;;;;13.98;8.20;;;;;;;;;;5066559;28;20192;-85
2021/04/06 11:47:16;;;;;;;24.88;10.30;;;;;;;;;;5066431;28;20213;-85
2021/04/06 11:49:49;;;;;;;28.88;16.30;;;;;;;;;;5064458;28;20226;-85
2021/04/06 11:52:27;;;;;;;66.47;26.13;;;;;;;;;;5066546;28;20226;-85
2021/04/06 11:55:30;;;;;;;7.47;4.97;;;7.50;99.90;;;;;;5066132;28;20199;-85
2021/04/06 11:58:22;;;;;;;4.97;2.70;;;;;;;;;;5037246;28;20209;-85
2021/04/06 12:01:23;;;;;;;3.30;2.20;;;7.50;99.90;;;;;;5068152;28;20229;-85
2021/04/06 12:06:54;;;;;;;9.48;3.65;;;;;;;;;;5060573;28;20198;-85
2021/04/06 12:09:30;;;;;;;6.63;2.72;;;;;;;;;;5065429;28;20210;-85
2021/04/06 12:12:33;;;;;;;4.72;2.80;;;7.90;99.90;;;;;;5065724;28;20202;-86
2021/04/06 12:15:04;;;;;;;8.00;2.63;;;;;;;;;;5065706;28;20272;-84
2021/04/06 12:17:31;;;;;;;6.97;2.70;;;;;;;;;;5066323;28;20581;-86
2021/04/06 12:20:03;;;;;;;7.43;3.35;;;;;;;;;;5066880;28;20227;-85
2021/04/06 12:22:35;;;;;;;4.07;2.20;;;;;;;;;;5070283;28;20263;-85
2021/04/06 12:25:01;;;;;;;5.80;1.95;;;;;;;;;;5065584;28;20203;-86
2021/04/06 12:27:35;;;;;;;6.50;2.60;;;6.50;99.90;;;;;;5064789;28;20203;-86
2021/04/06 12:30:10;;;;;;;2.67;2.47;;;;;;;;;;5063012;28;20227;-86
2021/04/06 12:33:06;;;;;;;;;;;;;;;;;;;;;
2021/04/06 12:35:36;;;;;;;7.28;2.50;;;;;;;;;;5063259;28;20389;-86
2021/04/06 12:38:33;;;;;;;6.20;2.22;;;5.80;99.90;;;;;;5066208;28;20206;-86
2021/04/06 12:41:06;;;;;;;2.70;1.67;;;;;;;;;;5065310;28;20234;-86
2021/04/06 12:46:28;;;;;;;5.03;2.28;;;;;;;;;;5062683;28;20238;-86
2021/04/06 12:49:06;;;;;;;3.45;2.20;;;;;;;;;;5066025;28;20210;-86
2021/04/06 12:52:09;;;;;;;6.10;2.03;;;6.20;99.90;;;;;;5067385;28;20211;-85
2021/04/06 12:54:41;;;;;;;3.75;2.10;;;;;;;;;;5068447;28;20617;-86
2021/04/06 12:57:16;;;;;;;2.85;2.25;;;;;;;;;;5067367;28;20210;-86
2021/04/06 12:59:44;;;;;;;2.28;1.80;;;;;;;;;;5066080;28;20570;-85
2021/04/06 13:02:22;;;;;;;4.28;1.50;;;;;;;;;;5068501;28;20183;-85
2021/04/06 13:07:53;;;;;;;6.63;2.30;;;;;;;;;;5058306;28;20203;-86
2021/04/06 13:10:44;;;;;;;6.15;2.20;;;6.50;99.90;;;;;;5072805;28;20218;-84
2021/04/06 13:13:34;;;;;;;2.50;2.22;;;6.10;99.90;;;;;;5067601;28;20233;-85
2021/04/06 13:16:33;;;;;;;;;;;;;;;;;;;;;
2021/04/06 13:19:33;;;;;;;8.80;2.15;;;6.60;99.90;;;;;;5074400;28;20229;-84
2021/04/06 13:21:59;;;;;;;1.83;1.60;;;;;;;;;;5074287;28;20219;-86
2021/04/06 13:24:35;;;;;;;5.70;2.00;;;;;;;;;;5074859;28;20195;-85
2021/04/06 13:27:05;;;;;;;3.35;1.92;;;;;;;;;;5073489;28;20191;-86
2021/04/06 13:29:41;;;;;;;7.13;2.05;;;;;;;;;;5069281;28;20230;-86
2021/04/06 13:32:22;;;;;;;7.40;1.85;;;;;;;;;;5065459;28;20213;-85
2021/04/06 13:35:03;;;;;;;7.10;1.92;;;;;;;;;;5064423;28;20236;-86
2021/04/06 13:37:33;;;;;;;3.65;1.98;;;7.70;99.90;;;;;;5064916;28;20205;-86
2021/04/06 13:40:12;;;;;;;3.15;2.20;;;7.50;99.90;;;;;;5067620;28;20237;-86
2021/04/06 13:45:30;;;;;;;2.05;1.85;;;;;;;;;;5063555;28;20187;-85
2021/04/06 13:48:03;;;;;;;2.25;1.75;;;;;;;;;;5067882;28;20195;-85
2021/04/06 13:50:31;;;;;;;3.55;1.85;;;7.30;99.90;;;;;;5071660;28;20377;-86
2021/04/06 13:52:57;;;;;;;6.03;1.50;;;7.20;99.90;;;;;;5071184;28;20214;-86